sensor_id;sensor_type;location;lat;lon;timestamp;P1;durP1;ratioP1;P2;durP2;ratioP2
12719;SDS011;6424;48.520;11.228;2023-11-21T00:01:20;4.40;;;1.30;;
12719;SDS011;6424;48.520;11.228;2023-11-21T00:04:04;6.00;;;2.00;;
12719;SDS011;6424;48.520;11.228;2023-11-21T00:06:50;5.80;;;1.80;;
12719;SDS011;6424;48.520;11.228;2023-11-21T00:09:35;4.90;;;1.53;;
12719;SDS011;6424;48.520;11.228;2023-11-21T00:12:20;6.97;;;1.77;;
12719;SDS011;6424;48.520;11.228;2023-11-21T00:15:04;6.47;;;1.90;;
12719;SDS011;6424;48.520;11.228;2023-11-21T00:17:49;5.00;;;1.40;;
12719;SDS011;6424;48.520;11.228;2023-11-21T00:20:33;4.17;;;1.60;;
12719;SDS011;6424;48.520;11.228;2023-11-21T00:23:17;3.23;;;1.43;;
12719;SDS011;6424;48.520;11.228;2023-11-21T00:26:01;5.20;;;1.43;;
12719;SDS011;6424;48.520;11.228;2023-11-21T00:28:47;6.23;;;1.37;;
12719;SDS011;6424;48.520;11.228;2023-11-21T00:31:31;6.47;;;1.43;;
12719;SDS011;6424;48.520;11.228;2023-11-21T00:34:16;5.87;;;1.57;;
12719;SDS011;6424;48.520;11.228;2023-11-21T00:37:01;4.60;;;1.27;;
12719;SDS011;6424;48.520;11.228;2023-11-21T00:39:46;5.43;;;1.67;;
12719;SDS011;6424;48.520;11.228;2023-11-21T00:42:30;7.13;;;1.53;;
12719;SDS011;6424;48.520;11.228;2023-11-21T00:45:17;4.23;;;1.30;;
12719;SDS011;6424;48.520;11.228;2023-11-21T00:48:01;2.80;;;1.10;;
12719;SDS011;6424;48.520;11.228;2023-11-21T00:50:48;3.20;;;1.27;;
12719;SDS011;6424;48.520;11.228;2023-11-21T00:53:33;3.37;;;0.90;;
12719;SDS011;6424;48.520;11.228;2023-11-21T00:56:18;5.03;;;1.50;;
12719;SDS011;6424;48.520;11.228;2023-11-21T00:59:02;4.90;;;1.43;;
12719;SDS011;6424;48.520;11.228;2023-11-21T01:01:48;4.03;;;1.30;;
12719;SDS011;6424;48.520;11.228;2023-11-21T01:04:33;2.93;;;1.00;;
12719;SDS011;6424;48.520;11.228;2023-11-21T01:07:17;1.40;;;0.73;;
12719;SDS011;6424;48.520;11.228;2023-11-21T01:10:04;2.63;;;1.10;;
12719;SDS011;6424;48.520;11.228;2023-11-21T01:12:51;2.63;;;0.90;;
12719;SDS011;6424;48.520;11.228;2023-11-21T01:15:35;3.17;;;0.90;;
12719;SDS011;6424;48.520;11.228;2023-11-21T01:18:20;3.33;;;0.97;;
12719;SDS011;6424;48.520;11.228;2023-11-21T01:21:04;5.40;;;1.30;;
12719;SDS011;6424;48.520;11.228;2023-11-21T01:23:49;7.00;;;1.60;;
12719;SDS011;6424;48.520;11.228;2023-11-21T01:26:34;3.83;;;1.30;;
12719;SDS011;6424;48.520;11.228;2023-11-21T01:29:18;5.50;;;1.30;;
12719;SDS011;6424;48.520;11.228;2023-11-21T01:32:03;4.03;;;1.10;;
12719;SDS011;6424;48.520;11.228;2023-11-21T01:34:49;8.67;;;1.40;;
12719;SDS011;6424;48.520;11.228;2023-11-21T01:37:34;4.70;;;1.70;;
12719;SDS011;6424;48.520;11.228;2023-11-21T01:40:18;3.47;;;1.20;;
12719;SDS011;6424;48.520;11.228;2023-11-21T01:43:02;4.30;;;1.10;;
12719;SDS011;6424;48.520;11.228;2023-11-21T01:45:47;6.10;;;1.70;;
12719;SDS011;6424;48.520;11.228;2023-11-21T01:48:32;5.70;;;1.37;;
12719;SDS011;6424;48.520;11.228;2023-11-21T01:51:17;5.00;;;1.60;;
12719;SDS011;6424;48.520;11.228;2023-11-21T01:54:02;5.50;;;1.70;;
12719;SDS011;6424;48.520;11.228;2023-11-21T01:56:48;6.70;;;1.50;;
12719;SDS011;6424;48.520;11.228;2023-11-21T01:59:36;4.33;;;1.90;;
12719;SDS011;6424;48.520;11.228;2023-11-21T02:02:21;5.80;;;1.77;;
12719;SDS011;6424;48.520;11.228;2023-11-21T02:05:05;8.43;;;1.80;;
12719;SDS011;6424;48.520;11.228;2023-11-21T02:07:52;3.80;;;1.53;;
12719;SDS011;6424;48.520;11.228;2023-11-21T02:10:36;4.07;;;1.50;;
12719;SDS011;6424;48.520;11.228;2023-11-21T02:13:21;6.70;;;1.70;;
12719;SDS011;6424;48.520;11.228;2023-11-21T02:16:06;6.53;;;1.90;;
12719;SDS011;6424;48.520;11.228;2023-11-21T02:18:51;4.77;;;1.43;;
12719;SDS011;6424;48.520;11.228;2023-11-21T02:21:35;8.27;;;1.70;;
12719;SDS011;6424;48.520;11.228;2023-11-21T02:24:24;5.13;;;1.53;;
12719;SDS011;6424;48.520;11.228;2023-11-21T02:27:08;7.67;;;1.87;;
12719;SDS011;6424;48.520;11.228;2023-11-21T02:29:54;3.97;;;1.53;;
12719;SDS011;6424;48.520;11.228;2023-11-21T02:32:39;3.17;;;1.40;;
12719;SDS011;6424;48.520;11.228;2023-11-21T02:35:26;4.40;;;1.80;;
12719;SDS011;6424;48.520;11.228;2023-11-21T02:38:10;4.77;;;1.77;;
12719;SDS011;6424;48.520;11.228;2023-11-21T02:40:56;3.43;;;1.60;;
12719;SDS011;6424;48.520;11.228;2023-11-21T02:43:42;4.23;;;1.20;;
12719;SDS011;6424;48.520;11.228;2023-11-21T02:46:27;6.13;;;1.60;;
12719;SDS011;6424;48.520;11.228;2023-11-21T02:49:11;7.33;;;1.63;;
12719;SDS011;6424;48.520;11.228;2023-11-21T02:51:55;6.07;;;1.40;;
12719;SDS011;6424;48.520;11.228;2023-11-21T02:54:40;3.10;;;1.43;;
12719;SDS011;6424;48.520;11.228;2023-11-21T02:57:24;4.07;;;1.60;;
12719;SDS011;6424;48.520;11.228;2023-11-21T03:00:08;4.93;;;1.77;;
12719;SDS011;6424;48.520;11.228;2023-11-21T03:02:58;5.30;;;1.87;;
12719;SDS011;6424;48.520;11.228;2023-11-21T03:05:43;3.10;;;1.70;;
12719;SDS011;6424;48.520;11.228;2023-11-21T03:08:27;3.20;;;1.40;;
12719;SDS011;6424;48.520;11.228;2023-11-21T03:11:12;4.60;;;1.50;;
12719;SDS011;6424;48.520;11.228;2023-11-21T03:13:56;6.40;;;1.50;;
12719;SDS011;6424;48.520;11.228;2023-11-21T03:16:40;2.80;;;1.37;;
12719;SDS011;6424;48.520;11.228;2023-11-21T03:19:24;4.87;;;1.40;;
12719;SDS011;6424;48.520;11.228;2023-11-21T03:22:09;3.03;;;1.57;;
12719;SDS011;6424;48.520;11.228;2023-11-21T03:24:53;6.53;;;2.07;;
12719;SDS011;6424;48.520;11.228;2023-11-21T03:27:37;5.67;;;1.43;;
12719;SDS011;6424;48.520;11.228;2023-11-21T03:30:22;3.63;;;1.50;;
12719;SDS011;6424;48.520;11.228;2023-11-21T03:33:07;6.23;;;1.50;;
12719;SDS011;6424;48.520;11.228;2023-11-21T03:35:51;5.43;;;1.80;;
12719;SDS011;6424;48.520;11.228;2023-11-21T03:38:36;4.23;;;1.57;;
12719;SDS011;6424;48.520;11.228;2023-11-21T03:41:21;4.87;;;1.37;;
12719;SDS011;6424;48.520;11.228;2023-11-21T03:44:05;5.40;;;1.40;;
12719;SDS011;6424;48.520;11.228;2023-11-21T03:46:49;4.17;;;1.70;;
12719;SDS011;6424;48.520;11.228;2023-11-21T03:49:34;4.73;;;1.50;;
12719;SDS011;6424;48.520;11.228;2023-11-21T03:52:18;5.00;;;1.73;;
12719;SDS011;6424;48.520;11.228;2023-11-21T03:55:02;2.57;;;1.30;;
12719;SDS011;6424;48.520;11.228;2023-11-21T03:57:47;3.53;;;1.40;;
12719;SDS011;6424;48.520;11.228;2023-11-21T04:00:32;3.20;;;1.57;;
12719;SDS011;6424;48.520;11.228;2023-11-21T04:03:16;5.60;;;1.43;;
12719;SDS011;6424;48.520;11.228;2023-11-21T04:06:00;5.73;;;1.40;;
12719;SDS011;6424;48.520;11.228;2023-11-21T04:08:45;6.97;;;1.73;;
12719;SDS011;6424;48.520;11.228;2023-11-21T04:11:29;8.30;;;2.50;;
12719;SDS011;6424;48.520;11.228;2023-11-21T04:14:14;6.37;;;1.60;;
12719;SDS011;6424;48.520;11.228;2023-11-21T04:16:59;5.90;;;1.37;;
12719;SDS011;6424;48.520;11.228;2023-11-21T04:19:43;5.80;;;1.67;;
12719;SDS011;6424;48.520;11.228;2023-11-21T04:22:27;4.73;;;1.63;;
12719;SDS011;6424;48.520;11.228;2023-11-21T04:25:13;5.97;;;2.07;;
12719;SDS011;6424;48.520;11.228;2023-11-21T04:27:58;6.80;;;1.93;;
12719;SDS011;6424;48.520;11.228;2023-11-21T04:30:43;2.80;;;1.33;;
12719;SDS011;6424;48.520;11.228;2023-11-21T04:33:27;2.90;;;1.37;;
12719;SDS011;6424;48.520;11.228;2023-11-21T04:36:11;5.20;;;1.60;;
12719;SDS011;6424;48.520;11.228;2023-11-21T04:38:56;3.53;;;1.30;;
12719;SDS011;6424;48.520;11.228;2023-11-21T04:41:40;3.93;;;1.47;;
12719;SDS011;6424;48.520;11.228;2023-11-21T04:44:24;4.90;;;1.70;;
12719;SDS011;6424;48.520;11.228;2023-11-21T04:47:09;2.33;;;1.30;;
12719;SDS011;6424;48.520;11.228;2023-11-21T04:49:53;3.07;;;1.47;;
12719;SDS011;6424;48.520;11.228;2023-11-21T04:52:37;4.40;;;1.50;;
12719;SDS011;6424;48.520;11.228;2023-11-21T04:55:22;5.00;;;1.37;;
12719;SDS011;6424;48.520;11.228;2023-11-21T04:58:06;4.13;;;1.73;;
12719;SDS011;6424;48.520;11.228;2023-11-21T05:00:52;6.53;;;1.40;;
12719;SDS011;6424;48.520;11.228;2023-11-21T05:03:36;8.10;;;1.70;;
12719;SDS011;6424;48.520;11.228;2023-11-21T05:06:22;5.53;;;1.70;;
12719;SDS011;6424;48.520;11.228;2023-11-21T05:09:07;3.03;;;1.53;;
12719;SDS011;6424;48.520;11.228;2023-11-21T05:11:55;7.00;;;1.70;;
12719;SDS011;6424;48.520;11.228;2023-11-21T05:14:39;2.77;;;1.50;;
12719;SDS011;6424;48.520;11.228;2023-11-21T05:17:23;4.83;;;1.37;;
12719;SDS011;6424;48.520;11.228;2023-11-21T05:20:07;4.17;;;1.63;;
12719;SDS011;6424;48.520;11.228;2023-11-21T05:22:53;3.80;;;1.63;;
12719;SDS011;6424;48.520;11.228;2023-11-21T05:25:37;2.50;;;1.17;;
12719;SDS011;6424;48.520;11.228;2023-11-21T05:28:22;4.97;;;1.40;;
12719;SDS011;6424;48.520;11.228;2023-11-21T05:31:06;3.97;;;1.67;;
12719;SDS011;6424;48.520;11.228;2023-11-21T05:33:51;2.67;;;1.50;;
12719;SDS011;6424;48.520;11.228;2023-11-21T05:36:35;2.30;;;1.27;;
12719;SDS011;6424;48.520;11.228;2023-11-21T05:39:19;5.00;;;1.40;;
12719;SDS011;6424;48.520;11.228;2023-11-21T05:42:04;3.23;;;1.50;;
12719;SDS011;6424;48.520;11.228;2023-11-21T05:44:48;3.87;;;1.33;;
12719;SDS011;6424;48.520;11.228;2023-11-21T05:47:33;7.80;;;2.20;;
12719;SDS011;6424;48.520;11.228;2023-11-21T05:50:17;4.23;;;1.90;;
12719;SDS011;6424;48.520;11.228;2023-11-21T05:53:02;3.07;;;1.30;;
12719;SDS011;6424;48.520;11.228;2023-11-21T05:55:46;3.13;;;1.40;;
12719;SDS011;6424;48.520;11.228;2023-11-21T05:58:30;3.20;;;1.40;;
12719;SDS011;6424;48.520;11.228;2023-11-21T06:01:14;5.17;;;1.70;;
12719;SDS011;6424;48.520;11.228;2023-11-21T06:03:59;3.97;;;1.67;;
12719;SDS011;6424;48.520;11.228;2023-11-21T06:06:43;4.93;;;1.73;;
12719;SDS011;6424;48.520;11.228;2023-11-21T06:09:28;2.80;;;1.27;;
12719;SDS011;6424;48.520;11.228;2023-11-21T06:12:12;3.77;;;2.27;;
12719;SDS011;6424;48.520;11.228;2023-11-21T06:14:56;8.30;;;5.40;;
12719;SDS011;6424;48.520;11.228;2023-11-21T06:17:41;9.50;;;5.13;;
12719;SDS011;6424;48.520;11.228;2023-11-21T06:20:26;6.23;;;2.77;;
12719;SDS011;6424;48.520;11.228;2023-11-21T06:23:11;2.70;;;1.70;;
12719;SDS011;6424;48.520;11.228;2023-11-21T06:25:55;4.13;;;1.70;;
12719;SDS011;6424;48.520;11.228;2023-11-21T06:28:41;4.13;;;1.70;;
12719;SDS011;6424;48.520;11.228;2023-11-21T06:31:25;6.40;;;2.67;;
12719;SDS011;6424;48.520;11.228;2023-11-21T06:34:09;5.40;;;1.80;;
12719;SDS011;6424;48.520;11.228;2023-11-21T06:36:53;6.07;;;1.90;;
12719;SDS011;6424;48.520;11.228;2023-11-21T06:39:38;4.90;;;1.53;;
12719;SDS011;6424;48.520;11.228;2023-11-21T06:42:23;3.40;;;1.63;;
12719;SDS011;6424;48.520;11.228;2023-11-21T06:45:07;3.90;;;1.80;;
12719;SDS011;6424;48.520;11.228;2023-11-21T06:47:54;3.30;;;2.23;;
12719;SDS011;6424;48.520;11.228;2023-11-21T06:50:38;3.67;;;1.60;;
12719;SDS011;6424;48.520;11.228;2023-11-21T06:53:22;3.87;;;1.47;;
12719;SDS011;6424;48.520;11.228;2023-11-21T06:56:15;7.10;;;1.60;;
12719;SDS011;6424;48.520;11.228;2023-11-21T06:59:02;3.47;;;1.70;;
12719;SDS011;6424;48.520;11.228;2023-11-21T07:01:49;2.77;;;1.40;;
12719;SDS011;6424;48.520;11.228;2023-11-21T07:04:33;7.30;;;1.90;;
12719;SDS011;6424;48.520;11.228;2023-11-21T07:07:18;6.13;;;1.80;;
12719;SDS011;6424;48.520;11.228;2023-11-21T07:10:03;3.30;;;2.00;;
12719;SDS011;6424;48.520;11.228;2023-11-21T07:12:47;2.83;;;1.77;;
12719;SDS011;6424;48.520;11.228;2023-11-21T07:15:32;4.27;;;1.70;;
12719;SDS011;6424;48.520;11.228;2023-11-21T07:18:16;4.37;;;1.90;;
12719;SDS011;6424;48.520;11.228;2023-11-21T07:21:01;4.33;;;1.97;;
12719;SDS011;6424;48.520;11.228;2023-11-21T07:23:46;2.87;;;1.50;;
12719;SDS011;6424;48.520;11.228;2023-11-21T07:26:30;3.50;;;1.40;;
12719;SDS011;6424;48.520;11.228;2023-11-21T07:29:14;3.03;;;1.50;;
12719;SDS011;6424;48.520;11.228;2023-11-21T07:31:58;2.30;;;1.60;;
12719;SDS011;6424;48.520;11.228;2023-11-21T07:34:44;3.93;;;1.67;;
12719;SDS011;6424;48.520;11.228;2023-11-21T07:37:28;3.43;;;2.30;;
12719;SDS011;6424;48.520;11.228;2023-11-21T07:40:13;3.60;;;1.87;;
12719;SDS011;6424;48.520;11.228;2023-11-21T07:42:57;7.23;;;2.17;;
12719;SDS011;6424;48.520;11.228;2023-11-21T07:45:41;4.80;;;1.83;;
12719;SDS011;6424;48.520;11.228;2023-11-21T07:48:26;4.30;;;1.77;;
12719;SDS011;6424;48.520;11.228;2023-11-21T07:51:10;3.37;;;1.80;;
12719;SDS011;6424;48.520;11.228;2023-11-21T07:53:56;2.40;;;1.53;;
12719;SDS011;6424;48.520;11.228;2023-11-21T07:56:40;2.50;;;1.43;;
12719;SDS011;6424;48.520;11.228;2023-11-21T07:59:24;6.40;;;2.20;;
12719;SDS011;6424;48.520;11.228;2023-11-21T08:02:10;2.80;;;2.07;;
12719;SDS011;6424;48.520;11.228;2023-11-21T08:04:54;4.63;;;3.90;;
12719;SDS011;6424;48.520;11.228;2023-11-21T08:07:40;4.37;;;2.27;;
12719;SDS011;6424;48.520;11.228;2023-11-21T08:10:24;6.20;;;3.33;;
12719;SDS011;6424;48.520;11.228;2023-11-21T08:13:10;6.47;;;2.67;;
12719;SDS011;6424;48.520;11.228;2023-11-21T08:15:58;6.50;;;2.60;;
12719;SDS011;6424;48.520;11.228;2023-11-21T08:18:46;5.97;;;3.77;;
12719;SDS011;6424;48.520;11.228;2023-11-21T08:21:30;4.83;;;2.47;;
12719;SDS011;6424;48.520;11.228;2023-11-21T08:24:14;6.00;;;2.20;;
12719;SDS011;6424;48.520;11.228;2023-11-21T08:26:58;6.30;;;3.27;;
12719;SDS011;6424;48.520;11.228;2023-11-21T08:29:43;9.40;;;3.87;;
12719;SDS011;6424;48.520;11.228;2023-11-21T08:32:27;4.10;;;2.27;;
12719;SDS011;6424;48.520;11.228;2023-11-21T08:35:11;6.83;;;2.97;;
12719;SDS011;6424;48.520;11.228;2023-11-21T08:37:55;5.00;;;3.23;;
12719;SDS011;6424;48.520;11.228;2023-11-21T08:40:41;8.03;;;4.60;;
12719;SDS011;6424;48.520;11.228;2023-11-21T08:43:25;6.47;;;3.23;;
12719;SDS011;6424;48.520;11.228;2023-11-21T08:46:10;6.23;;;3.63;;
12719;SDS011;6424;48.520;11.228;2023-11-21T08:48:55;6.60;;;2.97;;
12719;SDS011;6424;48.520;11.228;2023-11-21T08:51:39;3.93;;;2.40;;
12719;SDS011;6424;48.520;11.228;2023-11-21T08:54:23;7.43;;;3.07;;
12719;SDS011;6424;48.520;11.228;2023-11-21T08:57:09;6.20;;;4.07;;
12719;SDS011;6424;48.520;11.228;2023-11-21T08:59:53;6.70;;;3.63;;
12719;SDS011;6424;48.520;11.228;2023-11-21T09:02:41;5.17;;;3.23;;
12719;SDS011;6424;48.520;11.228;2023-11-21T09:05:25;5.93;;;3.10;;
12719;SDS011;6424;48.520;11.228;2023-11-21T09:08:09;11.73;;;5.93;;
12719;SDS011;6424;48.520;11.228;2023-11-21T09:10:54;5.37;;;3.37;;
12719;SDS011;6424;48.520;11.228;2023-11-21T09:13:38;7.23;;;3.17;;
12719;SDS011;6424;48.520;11.228;2023-11-21T09:16:22;5.03;;;3.83;;
12719;SDS011;6424;48.520;11.228;2023-11-21T09:19:07;3.90;;;3.03;;
12719;SDS011;6424;48.520;11.228;2023-11-21T09:21:51;5.60;;;2.97;;
12719;SDS011;6424;48.520;11.228;2023-11-21T09:24:36;5.67;;;3.00;;
12719;SDS011;6424;48.520;11.228;2023-11-21T09:27:21;6.27;;;3.27;;
12719;SDS011;6424;48.520;11.228;2023-11-21T09:30:05;4.27;;;2.40;;
12719;SDS011;6424;48.520;11.228;2023-11-21T09:32:53;2.53;;;1.93;;
12719;SDS011;6424;48.520;11.228;2023-11-21T09:35:38;2.93;;;2.43;;
12719;SDS011;6424;48.520;11.228;2023-11-21T09:38:23;2.70;;;1.90;;
12719;SDS011;6424;48.520;11.228;2023-11-21T09:41:11;3.70;;;1.97;;
12719;SDS011;6424;48.520;11.228;2023-11-21T09:44:22;6.00;;;2.57;;
12719;SDS011;6424;48.520;11.228;2023-11-21T09:47:18;4.23;;;2.17;;
12719;SDS011;6424;48.520;11.228;2023-11-21T09:50:03;4.10;;;2.07;;
12719;SDS011;6424;48.520;11.228;2023-11-21T09:55:48;2.43;;;1.67;;
12719;SDS011;6424;48.520;11.228;2023-11-21T09:58:35;2.70;;;1.57;;
12719;SDS011;6424;48.520;11.228;2023-11-21T10:01:20;4.37;;;1.70;;
12719;SDS011;6424;48.520;11.228;2023-11-21T10:04:07;2.73;;;1.77;;
12719;SDS011;6424;48.520;11.228;2023-11-21T10:06:55;3.53;;;1.63;;
12719;SDS011;6424;48.520;11.228;2023-11-21T10:09:41;2.10;;;1.30;;
12719;SDS011;6424;48.520;11.228;2023-11-21T10:12:25;2.67;;;1.40;;
12719;SDS011;6424;48.520;11.228;2023-11-21T10:15:12;2.73;;;1.00;;
12719;SDS011;6424;48.520;11.228;2023-11-21T10:18:00;2.33;;;1.20;;
12719;SDS011;6424;48.520;11.228;2023-11-21T10:20:50;3.03;;;1.70;;
12719;SDS011;6424;48.520;11.228;2023-11-21T10:23:38;2.47;;;1.30;;
12719;SDS011;6424;48.520;11.228;2023-11-21T10:26:22;3.30;;;1.60;;
12719;SDS011;6424;48.520;11.228;2023-11-21T10:29:07;2.30;;;1.20;;
12719;SDS011;6424;48.520;11.228;2023-11-21T10:31:51;2.83;;;1.47;;
12719;SDS011;6424;48.520;11.228;2023-11-21T10:34:38;8.90;;;5.00;;
12719;SDS011;6424;48.520;11.228;2023-11-21T10:37:24;4.13;;;2.20;;
12719;SDS011;6424;48.520;11.228;2023-11-21T10:40:10;1.57;;;1.00;;
12719;SDS011;6424;48.520;11.228;2023-11-21T10:42:55;2.87;;;1.50;;
12719;SDS011;6424;48.520;11.228;2023-11-21T10:45:52;2.83;;;1.03;;
12719;SDS011;6424;48.520;11.228;2023-11-21T10:48:44;1.43;;;0.83;;
12719;SDS011;6424;48.520;11.228;2023-11-21T10:51:28;1.33;;;0.90;;
12719;SDS011;6424;48.520;11.228;2023-11-21T10:54:12;1.00;;;0.97;;
12719;SDS011;6424;48.520;11.228;2023-11-21T10:56:57;1.83;;;1.00;;
12719;SDS011;6424;48.520;11.228;2023-11-21T10:59:43;3.13;;;1.03;;
12719;SDS011;6424;48.520;11.228;2023-11-21T11:02:35;1.50;;;0.80;;
12719;SDS011;6424;48.520;11.228;2023-11-21T11:05:20;4.93;;;4.37;;
12719;SDS011;6424;48.520;11.228;2023-11-21T11:08:11;1.63;;;1.10;;
12719;SDS011;6424;48.520;11.228;2023-11-21T11:10:56;1.90;;;1.23;;
12719;SDS011;6424;48.520;11.228;2023-11-21T11:13:45;1.60;;;0.90;;
12719;SDS011;6424;48.520;11.228;2023-11-21T11:16:29;1.40;;;1.00;;
12719;SDS011;6424;48.520;11.228;2023-11-21T11:19:14;1.80;;;0.90;;
12719;SDS011;6424;48.520;11.228;2023-11-21T11:28:17;1.13;;;0.80;;
12719;SDS011;6424;48.520;11.228;2023-11-21T11:34:29;2.10;;;0.70;;
12719;SDS011;6424;48.520;11.228;2023-11-21T11:37:16;1.03;;;0.80;;
12719;SDS011;6424;48.520;11.228;2023-11-21T11:40:01;1.33;;;0.70;;
12719;SDS011;6424;48.520;11.228;2023-11-21T11:42:56;2.20;;;0.77;;
12719;SDS011;6424;48.520;11.228;2023-11-21T11:45:42;2.60;;;0.90;;
12719;SDS011;6424;48.520;11.228;2023-11-21T11:48:28;1.33;;;0.90;;
12719;SDS011;6424;48.520;11.228;2023-11-21T11:51:13;5.77;;;1.23;;
12719;SDS011;6424;48.520;11.228;2023-11-21T11:54:00;2.27;;;1.40;;
12719;SDS011;6424;48.520;11.228;2023-11-21T11:56:45;3.43;;;2.40;;
12719;SDS011;6424;48.520;11.228;2023-11-21T11:59:31;2.43;;;1.97;;
12719;SDS011;6424;48.520;11.228;2023-11-21T12:03:04;4.50;;;2.07;;
12719;SDS011;6424;48.520;11.228;2023-11-21T12:05:51;1.87;;;1.30;;
12719;SDS011;6424;48.520;11.228;2023-11-21T12:08:41;3.90;;;1.40;;
12719;SDS011;6424;48.520;11.228;2023-11-21T12:11:31;3.20;;;1.60;;
12719;SDS011;6424;48.520;11.228;2023-11-21T12:14:16;4.40;;;1.30;;
12719;SDS011;6424;48.520;11.228;2023-11-21T12:17:01;3.27;;;2.17;;
12719;SDS011;6424;48.520;11.228;2023-11-21T12:19:48;4.73;;;2.20;;
12719;SDS011;6424;48.520;11.228;2023-11-21T12:22:36;1.63;;;1.40;;
12719;SDS011;6424;48.520;11.228;2023-11-21T12:25:25;2.17;;;1.97;;
12719;SDS011;6424;48.520;11.228;2023-11-21T12:28:13;2.93;;;1.90;;
12719;SDS011;6424;48.520;11.228;2023-11-21T12:30:57;2.10;;;1.70;;
12719;SDS011;6424;48.520;11.228;2023-11-21T12:33:42;2.83;;;2.10;;
12719;SDS011;6424;48.520;11.228;2023-11-21T12:36:26;1.63;;;1.37;;
12719;SDS011;6424;48.520;11.228;2023-11-21T12:39:12;2.30;;;1.80;;
12719;SDS011;6424;48.520;11.228;2023-11-21T12:41:58;2.23;;;1.00;;
12719;SDS011;6424;48.520;11.228;2023-11-21T12:44:42;3.73;;;1.23;;
12719;SDS011;6424;48.520;11.228;2023-11-21T12:47:33;2.80;;;1.60;;
12719;SDS011;6424;48.520;11.228;2023-11-21T12:50:19;6.30;;;2.03;;
12719;SDS011;6424;48.520;11.228;2023-11-21T12:53:11;7.67;;;2.13;;
12719;SDS011;6424;48.520;11.228;2023-11-21T12:55:56;3.07;;;1.10;;
12719;SDS011;6424;48.520;11.228;2023-11-21T12:58:44;3.70;;;1.50;;
12719;SDS011;6424;48.520;11.228;2023-11-21T13:01:32;2.60;;;1.47;;
12719;SDS011;6424;48.520;11.228;2023-11-21T13:04:20;2.03;;;1.37;;
12719;SDS011;6424;48.520;11.228;2023-11-21T13:07:05;2.13;;;1.60;;
12719;SDS011;6424;48.520;11.228;2023-11-21T13:09:57;2.80;;;1.80;;
12719;SDS011;6424;48.520;11.228;2023-11-21T13:12:43;4.83;;;1.87;;
12719;SDS011;6424;48.520;11.228;2023-11-21T13:15:31;3.53;;;1.97;;
12719;SDS011;6424;48.520;11.228;2023-11-21T13:18:16;4.33;;;2.20;;
12719;SDS011;6424;48.520;11.228;2023-11-21T13:21:01;4.13;;;1.70;;
12719;SDS011;6424;48.520;11.228;2023-11-21T13:23:52;2.93;;;1.57;;
12719;SDS011;6424;48.520;11.228;2023-11-21T13:26:37;3.10;;;1.83;;
12719;SDS011;6424;48.520;11.228;2023-11-21T13:29:22;3.33;;;1.93;;
12719;SDS011;6424;48.520;11.228;2023-11-21T13:32:07;3.30;;;1.70;;
12719;SDS011;6424;48.520;11.228;2023-11-21T13:34:55;2.00;;;1.50;;
12719;SDS011;6424;48.520;11.228;2023-11-21T13:37:39;1.00;;;0.90;;
12719;SDS011;6424;48.520;11.228;2023-11-21T13:40:23;1.40;;;1.07;;
12719;SDS011;6424;48.520;11.228;2023-11-21T13:43:10;5.13;;;1.50;;
12719;SDS011;6424;48.520;11.228;2023-11-21T13:45:59;1.63;;;1.10;;
12719;SDS011;6424;48.520;11.228;2023-11-21T13:48:54;1.23;;;1.00;;
12719;SDS011;6424;48.520;11.228;2023-11-21T13:51:39;1.60;;;1.27;;
12719;SDS011;6424;48.520;11.228;2023-11-21T13:54:31;3.87;;;1.87;;
12719;SDS011;6424;48.520;11.228;2023-11-21T13:57:16;2.57;;;1.80;;
12719;SDS011;6424;48.520;11.228;2023-11-21T14:00:00;2.97;;;2.00;;
12719;SDS011;6424;48.520;11.228;2023-11-21T14:02:45;2.73;;;2.30;;
12719;SDS011;6424;48.520;11.228;2023-11-21T14:05:29;3.33;;;2.33;;
12719;SDS011;6424;48.520;11.228;2023-11-21T14:08:15;2.10;;;1.40;;
12719;SDS011;6424;48.520;11.228;2023-11-21T14:11:03;1.40;;;1.20;;
12719;SDS011;6424;48.520;11.228;2023-11-21T14:13:50;2.13;;;1.10;;
12719;SDS011;6424;48.520;11.228;2023-11-21T14:16:34;2.70;;;1.63;;
12719;SDS011;6424;48.520;11.228;2023-11-21T14:19:18;3.23;;;1.90;;
12719;SDS011;6424;48.520;11.228;2023-11-21T14:22:03;5.20;;;2.40;;
12719;SDS011;6424;48.520;11.228;2023-11-21T14:24:47;1.10;;;1.00;;
12719;SDS011;6424;48.520;11.228;2023-11-21T14:27:33;3.73;;;3.20;;
12719;SDS011;6424;48.520;11.228;2023-11-21T14:30:17;3.60;;;2.00;;
12719;SDS011;6424;48.520;11.228;2023-11-21T14:33:04;3.27;;;2.13;;
12719;SDS011;6424;48.520;11.228;2023-11-21T14:35:50;5.27;;;4.40;;
12719;SDS011;6424;48.520;11.228;2023-11-21T14:38:34;3.73;;;2.70;;
12719;SDS011;6424;48.520;11.228;2023-11-21T14:41:19;2.47;;;1.60;;
12719;SDS011;6424;48.520;11.228;2023-11-21T14:44:03;2.90;;;2.53;;
12719;SDS011;6424;48.520;11.228;2023-11-21T14:46:48;4.00;;;2.67;;
12719;SDS011;6424;48.520;11.228;2023-11-21T14:49:34;2.73;;;2.53;;
12719;SDS011;6424;48.520;11.228;2023-11-21T14:52:34;2.73;;;2.30;;
12719;SDS011;6424;48.520;11.228;2023-11-21T14:55:18;3.90;;;1.63;;
12719;SDS011;6424;48.520;11.228;2023-11-21T14:58:04;4.43;;;1.70;;
12719;SDS011;6424;48.520;11.228;2023-11-21T15:00:49;2.57;;;1.50;;
12719;SDS011;6424;48.520;11.228;2023-11-21T15:03:34;2.03;;;1.70;;
12719;SDS011;6424;48.520;11.228;2023-11-21T15:06:27;3.40;;;2.77;;
12719;SDS011;6424;48.520;11.228;2023-11-21T15:09:14;5.63;;;4.40;;
12719;SDS011;6424;48.520;11.228;2023-11-21T15:11:59;4.60;;;3.73;;
12719;SDS011;6424;48.520;11.228;2023-11-21T15:14:58;8.20;;;6.50;;
12719;SDS011;6424;48.520;11.228;2023-11-21T15:17:42;5.77;;;3.80;;
12719;SDS011;6424;48.520;11.228;2023-11-21T15:20:27;3.33;;;3.03;;
12719;SDS011;6424;48.520;11.228;2023-11-21T15:23:11;21.63;;;16.20;;
12719;SDS011;6424;48.520;11.228;2023-11-21T15:26:01;19.80;;;13.63;;
12719;SDS011;6424;48.520;11.228;2023-11-21T15:28:47;11.17;;;8.07;;
12719;SDS011;6424;48.520;11.228;2023-11-21T15:31:32;13.03;;;8.27;;
12719;SDS011;6424;48.520;11.228;2023-11-21T15:34:16;23.37;;;14.43;;
12719;SDS011;6424;48.520;11.228;2023-11-21T15:37:01;14.37;;;10.73;;
12719;SDS011;6424;48.520;11.228;2023-11-21T15:39:46;5.10;;;3.03;;
12719;SDS011;6424;48.520;11.228;2023-11-21T15:42:30;5.87;;;4.13;;
12719;SDS011;6424;48.520;11.228;2023-11-21T15:45:15;5.03;;;4.00;;
12719;SDS011;6424;48.520;11.228;2023-11-21T15:48:02;3.27;;;2.30;;
12719;SDS011;6424;48.520;11.228;2023-11-21T15:50:47;3.60;;;1.83;;
12719;SDS011;6424;48.520;11.228;2023-11-21T15:53:34;2.20;;;1.60;;
12719;SDS011;6424;48.520;11.228;2023-11-21T15:56:18;3.03;;;2.73;;
12719;SDS011;6424;48.520;11.228;2023-11-21T15:59:02;6.63;;;5.83;;
12719;SDS011;6424;48.520;11.228;2023-11-21T16:01:47;5.50;;;5.00;;
12719;SDS011;6424;48.520;11.228;2023-11-21T16:04:32;2.80;;;2.50;;
12719;SDS011;6424;48.520;11.228;2023-11-21T16:07:17;2.07;;;1.67;;
12719;SDS011;6424;48.520;11.228;2023-11-21T16:10:02;2.97;;;2.00;;
12719;SDS011;6424;48.520;11.228;2023-11-21T16:12:47;8.03;;;5.30;;
12719;SDS011;6424;48.520;11.228;2023-11-21T16:15:32;4.27;;;3.20;;
12719;SDS011;6424;48.520;11.228;2023-11-21T16:18:17;5.67;;;3.13;;
12719;SDS011;6424;48.520;11.228;2023-11-21T16:21:02;4.13;;;3.37;;
12719;SDS011;6424;48.520;11.228;2023-11-21T16:23:47;5.03;;;3.53;;
12719;SDS011;6424;48.520;11.228;2023-11-21T16:26:31;9.23;;;7.57;;
12719;SDS011;6424;48.520;11.228;2023-11-21T16:29:16;4.93;;;4.37;;
12719;SDS011;6424;48.520;11.228;2023-11-21T16:32:00;6.80;;;4.40;;
12719;SDS011;6424;48.520;11.228;2023-11-21T16:34:45;4.00;;;3.60;;
12719;SDS011;6424;48.520;11.228;2023-11-21T16:37:31;4.57;;;3.80;;
12719;SDS011;6424;48.520;11.228;2023-11-21T16:40:15;4.33;;;3.70;;
12719;SDS011;6424;48.520;11.228;2023-11-21T16:43:02;3.97;;;3.67;;
12719;SDS011;6424;48.520;11.228;2023-11-21T16:45:46;4.03;;;3.57;;
12719;SDS011;6424;48.520;11.228;2023-11-21T16:48:35;7.00;;;5.23;;
12719;SDS011;6424;48.520;11.228;2023-11-21T16:51:20;8.33;;;7.43;;